Time;durP1;ratioP1;P1;durP2;ratioP2;P2;SDS_P1;SDS_P2;PMS_P1;PMS_P2;Temp;Humidity;BMP_temperature;BMP_pressure;BME280_temperature;BME280_humidity;BME280_pressure;Samples;Min_cycle;Max_cycle;Signal;HPM_P1;HPM_P2
2023/09/03 00:00:57;;;;;;;7.57;5.90;;;;;;;;;;2064246;28;20042;-90
2023/09/03 00:01:58;;;;;;;8.80;5.40;;;;;;;;;;2064006;28;20041;-90
2023/09/03 00:02:58;;;;;;;7.55;4.88;;;;;;;;;;2063939;28;20030;-90
2023/09/03 00:03:59;;;;;;;7.55;5.35;;;;;;;;;;2073153;28;20034;-90
2023/09/03 00:04:59;;;;;;;7.07;5.22;;;;;;;;;;2080516;28;20091;-90
2023/09/03 00:05:59;;;;;;;8.00;5.85;;;;;;;;;;2072211;28;20041;-90
2023/09/03 00:07:00;;;;;;;8.25;5.18;;;;;;;;;;2064282;28;20065;-90
2023/09/03 00:08:03;;;;;;;9.15;6.25;;;;;;;;;;1797784;28;10164802;-90
2023/09/03 00:09:06;;;;;;;7.97;5.57;;;;;;;;;;2079827;28;20298;-90
2023/09/03 00:10:07;;;;;;;8.10;6.30;;;;;;;;;;2070117;28;20065;-90
2023/09/03 00:11:07;;;;;;;7.13;5.32;;;;;;;;;;2064071;28;20039;-91
2023/09/03 00:12:08;;;;;;;7.25;4.90;;;;;;;;;;2072252;28;20038;-90
2023/09/03 00:13:08;;;;;;;8.13;5.25;;;;;;;;;;2080531;28;20119;-89
2023/09/03 00:14:09;;;;;;;7.43;5.22;;;;;;;;;;2072867;28;20038;-89
2023/09/03 00:15:09;;;;;;;7.70;5.38;;;;;;;;;;2072529;28;20435;-89
2023/09/03 00:16:10;;;;;;;9.40;5.30;;;;;;;;;;2071760;28;20049;-89
2023/09/03 00:17:14;;;;;;;8.90;5.20;;;;;;;;;;1724476;28;10239799;-89
2023/09/03 00:18:14;;;;;;;8.55;5.65;;;;;;;;;;2075800;28;20134;-89
2023/09/03 00:19:15;;;;;;;8.55;5.97;;;;;;;;;;2072480;28;20054;-89
2023/09/03 00:20:15;;;;;;;10.35;5.82;;;;;;;;;;2072622;28;20034;-89
2023/09/03 00:21:15;;;;;;;10.85;6.22;;;;;;;;;;2079939;28;20037;-90
2023/09/03 00:22:16;;;;;;;13.40;6.60;;;;;;;;;;2080299;28;20052;-89
2023/09/03 00:23:16;;;;;;;7.57;5.35;;;;;;;;;;2063916;28;20379;-89
2023/09/03 00:24:17;;;;;;;9.80;5.70;;;;;;;;;;2063903;28;20813;-89
2023/09/03 00:25:17;;;;;;;9.32;5.75;;;;;;;;;;2080072;28;20258;-89
2023/09/03 00:26:21;;;;;;;7.35;5.25;;;;;;;;;;2071817;28;20496;-89
2023/09/03 00:27:21;;;;;;;7.30;5.18;;;;;;;;;;2072005;28;20034;-90
2023/09/03 00:28:23;;;;;;;10.32;5.57;;;;;;;;;;2081888;28;20113;-89
2023/09/03 00:29:23;;;;;;;9.00;5.72;;;;;;;;;;2083642;28;20037;-89
2023/09/03 00:30:23;;;;;;;8.18;5.47;;;;;;;;;;2071541;28;20026;-88
2023/09/03 00:31:25;;;;;;;9.60;5.43;;;;;;;;;;2063822;28;20133;-91
2023/09/03 00:32:25;;;;;;;8.88;5.35;;;;;;;;;;2063653;28;20026;-90
2023/09/03 00:33:27;;;;;;;7.47;5.63;;;;;;;;;;2079959;28;20194;-90
2023/09/03 00:34:28;;;;;;;9.10;5.45;;;;;;;;;;2080058;28;20096;-89
2023/09/03 00:35:28;;;;;;;9.52;5.00;;;;;;;;;;2063529;28;20511;-89
2023/09/03 00:36:29;;;;;;;7.35;4.75;;;;;;;;;;2071875;28;20088;-91
2023/09/03 00:37:29;;;;;;;7.18;5.07;;;;;;;;;;2072041;28;20075;-89
2023/09/03 00:38:30;;;;;;;9.80;5.70;;;;;;;;;;2063370;28;20516;-89
2023/09/03 00:39:30;;;;;;;7.07;5.25;;;;;;;;;;2063730;28;20042;-88
2023/09/03 00:40:37;;;;;;;9.10;5.25;;;;;;;;;;2063783;28;20492;-91
2023/09/03 00:41:38;;;;;;;7.55;5.30;;;;;;;;;;2072811;28;20040;-90
2023/09/03 00:42:39;;;;;;;8.18;5.30;;;;;;;;;;1721882;28;10268193;-89
2023/09/03 00:43:40;;;;;;;8.65;5.00;;;;;;;;;;2079367;28;20046;-89
2023/09/03 00:44:41;;;;;;;7.55;5.32;;;;;;;;;;2072442;28;20044;-89
2023/09/03 00:45:44;;;;;;;8.90;5.32;;;;;;;;;;2080159;28;20276;-89
2023/09/03 00:46:45;;;;;;;6.65;4.72;;;;;;;;;;2071501;28;20029;-89
2023/09/03 00:47:47;;;;;;;7.63;5.10;;;;;;;;;;2063740;28;20045;-89
2023/09/03 00:48:48;;;;;;;6.80;5.22;;;;;;;;;;2064060;28;20460;-90
2023/09/03 00:49:48;;;;;;;7.38;5.45;;;;;;;;;;2071601;28;20042;-89
2023/09/03 00:50:51;;;;;;;8.70;5.38;;;;;;;;;;2074787;28;20440;-88
2023/09/03 00:51:53;;;;;;;8.20;5.30;;;;;;;;;;2076284;28;20112;-88
2023/09/03 00:52:54;;;;;;;7.90;5.30;;;;;;;;;;2075297;28;20034;-88
2023/09/03 00:53:56;;;;;;;7.95;5.15;;;;;;;;;;2074885;28;20052;-88
2023/09/03 00:54:57;;;;;;;8.23;5.78;;;;;;;;;;2073323;28;20487;-89
2023/09/03 00:55:58;;;;;;;10.17;6.80;;;;;;;;;;1721922;28;10330179;-88
2023/09/03 00:56:59;;;;;;;10.27;6.47;;;;;;;;;;2079988;28;20347;-89
2023/09/03 00:57:59;;;;;;;10.02;7.45;;;;;;;;;;2072855;28;20037;-89
2023/09/03 00:59:00;;;;;;;10.38;6.50;;;;;;;;;;2071998;28;20088;-90
2023/09/03 01:00:01;;;;;;;9.07;6.65;;;;;;;;;;2063763;28;20053;-88
2023/09/03 01:01:02;;;;;;;11.30;5.97;;;;;;;;;;2063710;28;20555;-89
2023/09/03 01:02:02;;;;;;;10.85;5.78;;;;;;;;;;2072509;28;20052;-91
2023/09/03 01:03:06;;;;;;;6.55;5.40;;;;;;;;;;2071614;28;20037;-90
2023/09/03 01:04:06;;;;;;;8.63;5.35;;;;;;;;;;2063802;28;20066;-90
2023/09/03 01:05:06;;;;;;;10.27;5.70;;;;;;;;;;2063560;28;20053;-90
2023/09/03 01:06:07;;;;;;;9.77;5.75;;;;;;;;;;2073758;28;20052;-90
2023/09/03 01:07:09;;;;;;;7.03;5.60;;;;;;;;;;2073450;28;20088;-90
2023/09/03 01:08:10;;;;;;;7.55;5.85;;;;;;;;;;2064685;28;20101;-90
2023/09/03 01:09:11;;;;;;;9.93;5.30;;;;;;;;;;2075656;28;20034;-90
2023/09/03 01:10:11;;;;;;;9.38;5.60;;;;;;;;;;2085388;28;20577;-89
2023/09/03 01:11:50;;;;;;;8.60;5.05;;;;;;;;;;2077024;28;20030;-89
2023/09/03 01:13:05;;;;;;;9.23;5.28;;;;;;;;;;2052619;28;20511;-90
2023/09/03 01:14:18;;;;;;;11.35;5.47;;;;;;;;;;2063047;28;20034;-89
2023/09/03 01:15:31;;;;;;;8.10;5.40;;;;;;;;;;2062904;28;20033;-90
2023/09/03 01:16:36;;;;;;;7.30;5.45;;;;;;;;;;2065442;28;20034;-90
2023/09/03 01:17:52;;;;;;;6.28;5.30;;;;;;;;;;2079592;28;20419;-90
2023/09/03 01:18:55;;;;;;;8.13;5.03;;;;;;;;;;2078053;28;20049;-90
2023/09/03 01:20:10;;;;;;;7.97;5.55;;;;;;;;;;2079901;28;20045;-90
2023/09/03 01:21:25;;;;;;;7.35;5.00;;;;;;;;;;2078479;28;20540;-90
2023/09/03 01:23:09;;;;;;;6.78;5.13;;;;;;;;;;2071701;28;20037;-90
2023/09/03 01:24:23;;;;;;;12.07;7.53;;;;;;;;;;2063492;28;20515;-90
2023/09/03 01:25:48;;;;;;;9.18;6.20;;;;;;;;;;2065461;28;20044;-90
2023/09/03 01:27:10;;;;;;;10.93;5.78;;;;;;;;;;2071546;28;20586;-91
2023/09/03 01:28:20;;;;;;;9.32;5.97;;;;;;;;;;2063319;28;20115;-90
2023/09/03 01:29:21;;;;;;;8.93;5.90;;;;;;;;;;2076457;28;20038;-89
2023/09/03 01:30:22;;;;;;;7.60;5.25;;;;;;;;;;2089463;28;20030;-85
2023/09/03 01:31:23;;;;;;;7.93;5.70;;;;;;;;;;2066606;28;20042;-91
2023/09/03 01:32:24;;;;;;;10.30;5.32;;;;;;;;;;2072270;28;20499;-90
2023/09/03 01:33:26;;;;;;;7.43;5.38;;;;;;;;;;2079587;28;20120;-90
2023/09/03 01:34:28;;;;;;;6.85;5.45;;;;;;;;;;2071535;28;20036;-91
2023/09/03 01:35:30;;;;;;;6.82;5.13;;;;;;;;;;2063693;28;20038;-89
2023/09/03 01:36:32;;;;;;;6.72;5.00;;;;;;;;;;2079846;28;20096;-90
2023/09/03 01:37:34;;;;;;;7.70;5.63;;;;;;;;;;2071265;28;20058;-91
2023/09/03 01:38:38;;;;;;;6.97;5.20;;;;;;;;;;2063536;28;20042;-90
2023/09/03 01:39:39;;;;;;;7.40;5.72;;;;;;;;;;2072281;28;20046;-90
2023/09/03 01:40:40;;;;;;;7.80;5.80;;;;;;;;;;2079678;28;20495;-90
2023/09/03 01:41:41;;;;;;;9.52;7.07;;;;;;;;;;2079362;28;20074;-89
2023/09/03 01:42:42;;;;;;;10.77;5.85;;;;;;;;;;2079514;28;20037;-90
2023/09/03 01:43:42;;;;;;;9.35;5.93;;;;;;;;;;2079820;28;20157;-89
2023/09/03 01:44:43;;;;;;;10.40;6.18;;;;;;;;;;2074105;28;20038;-89
2023/09/03 01:46:08;;;;;;;6.63;5.30;;;;;;;;;;2072459;28;20045;-89
2023/09/03 01:47:35;;;;;;;6.65;5.07;;;;;;;;;;2071289;28;20522;-89
2023/09/03 01:48:47;;;;;;;8.88;5.68;;;;;;;;;;2071784;28;20041;-90
2023/09/03 01:50:02;;;;;;;8.95;4.90;;;;;;;;;;2071477;28;20455;-89
2023/09/03 01:51:40;;;;;;;8.40;5.40;;;;;;;;;;2079440;28;20128;-89
2023/09/03 01:52:56;;;;;;;9.10;5.68;;;;;;;;;;2066434;28;20601;-90
2023/09/03 01:54:08;;;;;;;7.00;5.13;;;;;;;;;;2065629;28;20492;-89
2023/09/03 01:55:10;;;;;;;6.72;5.00;;;;;;;;;;2072441;28;20045;-89
2023/09/03 01:56:14;;;;;;;6.75;5.18;;;;;;;;;;2072038;28;20065;-89
2023/09/03 01:57:34;;;;;;;8.25;5.57;;;;;;;;;;2079265;28;20037;-90
2023/09/03 01:58:37;;;;;;;8.57;5.72;;;;;;;;;;2068578;28;20042;-89
2023/09/03 01:59:51;;;;;;;8.38;5.63;;;;;;;;;;2063361;28;20081;-89
2023/09/03 02:00:53;;;;;;;8.02;5.63;;;;;;;;;;2079546;28;20125;-90
2023/09/03 02:01:54;;;;;;;7.40;6.05;;;;;;;;;;2079111;28;20554;-89
2023/09/03 02:02:56;;;;;;;10.75;5.38;;;;;;;;;;2079249;28;20072;-89
2023/09/03 02:03:56;;;;;;;7.00;5.40;;;;;;;;;;2079653;28;20049;-90
2023/09/03 02:04:57;;;;;;;8.18;5.53;;;;;;;;;;2063416;28;20100;-89
2023/09/03 02:05:57;;;;;;;8.65;5.72;;;;;;;;;;2071199;28;20046;-90
2023/09/03 02:06:58;;;;;;;8.32;5.30;;;;;;;;;;2071302;28;20045;-89
2023/09/03 02:07:58;;;;;;;9.02;5.18;;;;;;;;;;2071410;28;20061;-90
2023/09/03 02:08:58;;;;;;;9.05;5.43;;;;;;;;;;2071144;28;20045;-89
2023/09/03 02:10:00;;;;;;;8.45;5.40;;;;;;;;;;2063310;28;20038;-89
2023/09/03 02:11:01;;;;;;;6.55;5.32;;;;;;;;;;2079699;28;20056;-89
2023/09/03 02:12:02;;;;;;;10.02;5.72;;;;;;;;;;2071500;28;20061;-89
2023/09/03 02:13:02;;;;;;;8.50;5.68;;;;;;;;;;2071165;28;20105;-91
2023/09/03 02:14:03;;;;;;;6.60;5.32;;;;;;;;;;2071424;28;20045;-88
2023/09/03 02:15:04;;;;;;;10.85;5.72;;;;;;;;;;2063281;28;20103;-89
2023/09/03 02:16:04;;;;;;;7.55;5.55;;;;;;;;;;2064234;28;20384;-88
2023/09/03 02:17:05;;;;;;;8.40;5.47;;;;;;;;;;2079040;28;20061;-88
2023/09/03 02:18:06;;;;;;;8.25;5.63;;;;;;;;;;2084922;28;20124;-90
2023/09/03 02:19:06;;;;;;;8.38;5.05;;;;;;;;;;2072046;28;20037;-90
2023/09/03 02:20:07;;;;;;;10.05;5.68;;;;;;;;;;2071139;28;20061;-90
2023/09/03 02:21:08;;;;;;;7.53;5.38;;;;;;;;;;2079290;28;20485;-89
2023/09/03 02:22:08;;;;;;;8.52;5.55;;;;;;;;;;2079620;28;20068;-89
2023/09/03 02:23:09;;;;;;;8.43;5.20;;;;;;;;;;2063379;28;20058;-90
2023/09/03 02:24:09;;;;;;;7.72;5.82;;;;;;;;;;2071355;28;20045;-90
2023/09/03 02:25:10;;;;;;;7.82;6.03;;;;;;;;;;2071432;28;20482;-89
2023/09/03 02:26:11;;;;;;;6.57;5.32;;;;;;;;;;2063278;28;20498;-89
2023/09/03 02:27:12;;;;;;;10.20;5.32;;;;;;;;;;2079174;28;20459;-91
2023/09/03 02:28:12;;;;;;;6.68;5.50;;;;;;;;;;2079484;28;20041;-91
2023/09/03 02:29:13;;;;;;;8.95;5.85;;;;;;;;;;2072196;28;20050;-90
2023/09/03 02:30:13;;;;;;;9.02;5.55;;;;;;;;;;2071432;28;20049;-91
2023/09/03 02:31:14;;;;;;;7.78;5.90;;;;;;;;;;2071852;28;20037;-91
2023/09/03 02:32:14;;;;;;;8.38;5.38;;;;;;;;;;1725457;28;10000938;-91
2023/09/03 02:33:15;;;;;;;7.40;5.75;;;;;;;;;;2062895;28;20121;-90
2023/09/03 02:34:15;;;;;;;7.40;5.97;;;;;;;;;;2063185;28;20022;-90
2023/09/03 02:35:16;;;;;;;8.90;5.78;;;;;;;;;;2071558;28;20551;-89
2023/09/03 02:36:16;;;;;;;7.60;5.65;;;;;;;;;;2071464;28;20480;-90
2023/09/03 02:37:17;;;;;;;8.52;5.88;;;;;;;;;;2071584;28;20109;-90
2023/09/03 02:38:17;;;;;;;7.50;6.13;;;;;;;;;;2079033;28;20582;-89
2023/09/03 02:39:18;;;;;;;8.57;5.93;;;;;;;;;;2071262;28;20425;-89
2023/09/03 02:40:19;;;;;;;9.68;6.00;;;;;;;;;;2056487;28;20488;-89
2023/09/03 02:41:19;;;;;;;6.90;5.38;;;;;;;;;;2072617;28;20034;-89
2023/09/03 02:42:19;;;;;;;9.18;5.00;;;;;;;;;;2080844;28;20499;-90
2023/09/03 02:43:20;;;;;;;8.02;5.38;;;;;;;;;;2073449;28;20121;-90
2023/09/03 02:44:20;;;;;;;8.88;5.75;;;;;;;;;;2073341;28;20037;-90
2023/09/03 02:45:20;;;;;;;8.35;5.60;;;;;;;;;;2072674;28;20499;-90
2023/09/03 02:46:21;;;;;;;8.23;5.85;;;;;;;;;;2072678;28;20096;-89
2023/09/03 02:47:21;;;;;;;8.02;5.13;;;;;;;;;;2073414;28;20685;-89
2023/09/03 02:48:22;;;;;;;7.63;5.20;;;;;;;;;;2081041;28;20041;-89
2023/09/03 02:49:22;;;;;;;7.13;5.40;;;;;;;;;;2081082;28;20041;-89
2023/09/03 02:50:22;;;;;;;7.95;5.70;;;;;;;;;;2064666;28;20065;-89
2023/09/03 02:51:23;;;;;;;9.35;5.75;;;;;;;;;;2072627;28;20044;-89
2023/09/03 02:52:23;;;;;;;7.05;5.60;;;;;;;;;;2072595;28;20034;-90
2023/09/03 02:53:24;;;;;;;6.97;5.15;;;;;;;;;;2072291;28;20034;-89
2023/09/03 02:54:24;;;;;;;6.30;5.47;;;;;;;;;;2072627;28;20105;-90
2023/09/03 02:55:25;;;;;;;8.25;5.60;;;;;;;;;;2064539;28;20411;-89
2023/09/03 02:56:26;;;;;;;7.82;5.30;;;;;;;;;;2064632;28;20122;-89
2023/09/03 02:57:26;;;;;;;8.25;5.25;;;;;;;;;;2064669;28;20034;-89
2023/09/03 02:58:27;;;;;;;8.93;5.63;;;;;;;;;;2073494;28;20034;-89
2023/09/03 02:59:29;;;;;;;7.13;5.70;;;;;;;;;;2073444;28;20399;-89
2023/09/03 03:00:29;;;;;;;5.75;4.95;;;;;;;;;;2080612;28;20148;-90
2023/09/03 03:01:30;;;;;;;7.93;6.10;;;;;;;;;;2072605;28;20057;-89
2023/09/03 03:02:30;;;;;;;9.43;5.43;;;;;;;;;;2064681;28;20038;-90
2023/09/03 03:03:31;;;;;;;7.57;5.22;;;;;;;;;;2067161;28;20039;-89
2023/09/03 03:04:31;;;;;;;9.15;6.57;;;;;;;;;;2072944;28;20038;-86
2023/09/03 03:05:31;;;;;;;9.18;5.68;;;;;;;;;;2075732;28;20042;-89
2023/09/03 03:06:32;;;;;;;8.70;6.03;;;;;;;;;;2080498;28;20120;-90
2023/09/03 03:07:32;;;;;;;9.45;5.85;;;;;;;;;;2080949;28;20513;-89
2023/09/03 03:08:33;;;;;;;7.35;6.10;;;;;;;;;;2072943;28;20081;-90
2023/09/03 03:09:33;;;;;;;7.28;5.40;;;;;;;;;;2080710;28;20573;-91
2023/09/03 03:10:34;;;;;;;8.02;5.85;;;;;;;;;;2080853;28;20045;-91
2023/09/03 03:11:34;;;;;;;9.60;5.57;;;;;;;;;;2073221;28;20041;-90
2023/09/03 03:12:35;;;;;;;8.75;5.90;;;;;;;;;;2073293;28;20041;-91
2023/09/03 03:13:37;;;;;;;9.48;5.55;;;;;;;;;;2080823;28;20064;-90
2023/09/03 03:14:37;;;;;;;7.65;5.60;;;;;;;;;;2080368;28;20140;-90
2023/09/03 03:15:38;;;;;;;8.52;5.55;;;;;;;;;;2064499;28;20501;-89
2023/09/03 03:16:38;;;;;;;8.80;5.82;;;;;;;;;;2064570;28;20126;-89
2023/09/03 03:17:38;;;;;;;7.60;6.20;;;;;;;;;;2072483;28;20567;-89
2023/09/03 03:18:43;;;;;;;7.85;5.78;;;;;;;;;;2064504;28;20074;-89
2023/09/03 03:19:48;;;;;;;11.15;6.45;;;;;;;;;;2073097;28;20410;-89
2023/09/03 03:20:49;;;;;;;9.45;6.00;;;;;;;;;;2080410;28;20172;-89
2023/09/03 03:21:49;;;;;;;7.35;5.53;;;;;;;;;;2073095;28;20041;-89
2023/09/03 03:22:49;;;;;;;9.00;5.65;;;;;;;;;;2064332;28;20488;-90
2023/09/03 03:23:51;;;;;;;8.93;5.78;;;;;;;;;;2072631;28;20036;-90
2023/09/03 03:24:52;;;;;;;6.97;5.80;;;;;;;;;;2072249;28;20041;-89
2023/09/03 03:25:52;;;;;;;8.68;5.78;;;;;;;;;;2064384;28;20069;-89
2023/09/03 03:26:53;;;;;;;9.07;5.78;;;;;;;;;;2064271;28;20066;-90
2023/09/03 03:27:53;;;;;;;9.80;6.28;;;;;;;;;;2064022;28;20605;-89
2023/09/03 03:28:54;;;;;;;8.20;5.78;;;;;;;;;;2073234;28;20407;-89
2023/09/03 03:29:54;;;;;;;9.77;6.18;;;;;;;;;;2073184;28;20105;-89
2023/09/03 03:30:56;;;;;;;7.45;6.30;;;;;;;;;;2080387;28;20119;-89
2023/09/03 03:31:56;;;;;;;9.13;6.00;;;;;;;;;;2080190;28;20068;-90
2023/09/03 03:32:57;;;;;;;9.27;6.90;;;;;;;;;;2080547;28;20478;-89
2023/09/03 03:33:57;;;;;;;9.88;5.93;;;;;;;;;;2080441;28;20037;-90
2023/09/03 03:34:58;;;;;;;9.50;6.28;;;;;;;;;;2064071;28;20049;-89
2023/09/03 03:35:59;;;;;;;7.78;5.63;;;;;;;;;;2072341;28;20026;-89
2023/09/03 03:36:59;;;;;;;9.73;6.32;;;;;;;;;;2072385;28;20066;-89
2023/09/03 03:38:00;;;;;;;9.60;6.25;;;;;;;;;;2064094;28;20038;-89
2023/09/03 03:39:00;;;;;;;8.02;5.72;;;;;;;;;;2072336;28;20050;-89
2023/09/03 03:40:01;;;;;;;11.52;6.47;;;;;;;;;;2080717;28;20091;-89
2023/09/03 03:41:16;;;;;;;10.88;7.03;;;;;;;;;;2072746;28;20184;-90
2023/09/03 03:42:16;;;;;;;10.73;6.82;;;;;;;;;;2072810;28;20069;-90
2023/09/03 03:43:17;;;;;;;8.60;5.88;;;;;;;;;;2072680;28;20037;-90
2023/09/03 03:44:17;;;;;;;9.65;6.25;;;;;;;;;;2064104;28;20036;-90
2023/09/03 03:45:17;;;;;;;8.70;6.30;;;;;;;;;;2064022;28;20516;-90
2023/09/03 03:46:19;;;;;;;12.23;7.22;;;;;;;;;;2063593;28;20031;-90
2023/09/03 03:47:20;;;;;;;11.10;6.90;;;;;;;;;;2063678;28;20113;-90
2023/09/03 03:48:20;;;;;;;10.60;7.50;;;;;;;;;;2063666;28;20038;-90
2023/09/03 03:49:20;;;;;;;8.52;7.18;;;;;;;;;;2063614;28;20046;-89
2023/09/03 03:50:21;;;;;;;10.90;8.40;;;;;;;;;;2073425;28;20037;-90
2023/09/03 03:51:21;;;;;;;9.38;7.20;;;;;;;;;;2086884;28;20068;-88
2023/09/03 03:52:22;;;;;;;11.45;8.20;;;;;;;;;;2078759;28;20418;-90
2023/09/03 03:53:22;;;;;;;13.13;9.23;;;;;;;;;;2072475;28;20168;-90
2023/09/03 03:54:23;;;;;;;11.18;8.15;;;;;;;;;;2079892;28;20103;-90
2023/09/03 03:55:23;;;;;;;9.00;7.35;;;;;;;;;;2071611;28;20033;-90
2023/09/03 03:56:23;;;;;;;11.10;7.90;;;;;;;;;;1714843;28;10139114;-90
2023/09/03 03:57:24;;;;;;;9.60;7.15;;;;;;;;;;2072183;28;20037;-90
2023/09/03 03:58:25;;;;;;;10.05;7.32;;;;;;;;;;2080294;28;20438;-90
2023/09/03 03:59:27;;;;;;;9.93;7.60;;;;;;;;;;2080425;28;20483;-90
2023/09/03 04:00:28;;;;;;;9.93;7.13;;;;;;;;;;2072058;28;20070;-89
2023/09/03 04:01:28;;;;;;;10.40;7.72;;;;;;;;;;2064429;28;20038;-89
2023/09/03 04:02:28;;;;;;;8.88;6.65;;;;;;;;;;2072308;28;20527;-89
2023/09/03 04:03:29;;;;;;;9.18;6.93;;;;;;;;;;2080199;28;20060;-89
2023/09/03 04:04:29;;;;;;;10.00;6.82;;;;;;;;;;2079920;28;20128;-90
2023/09/03 04:05:30;;;;;;;8.85;7.07;;;;;;;;;;2063643;28;20452;-90
2023/09/03 04:06:31;;;;;;;8.95;6.80;;;;;;;;;;2064149;28;20385;-90
2023/09/03 04:07:32;;;;;;;10.50;6.82;;;;;;;;;;2072132;28;20026;-90
2023/09/03 04:08:35;;;;;;;8.07;6.25;;;;;;;;;;2064010;28;20129;-90
2023/09/03 04:09:37;;;;;;;10.65;6.60;;;;;;;;;;2072234;28;20070;-90
2023/09/03 04:10:37;;;;;;;10.05;6.40;;;;;;;;;;2071453;28;20120;-90
2023/09/03 04:11:38;;;;;;;12.15;6.47;;;;;;;;;;2071634;28;20431;-90
2023/09/03 04:12:38;;;;;;;12.80;7.38;;;;;;;;;;2079954;28;20040;-90
2023/09/03 04:13:39;;;;;;;9.82;6.30;;;;;;;;;;2063542;28;20042;-90
2023/09/03 04:14:40;;;;;;;8.35;6.57;;;;;;;;;;2072156;28;20219;-90
2023/09/03 04:15:40;;;;;;;10.40;6.68;;;;;;;;;;2071961;28;20494;-91
2023/09/03 04:16:41;;;;;;;8.60;6.18;;;;;;;;;;2057428;28;20121;-91
2023/09/03 04:17:41;;;;;;;8.25;5.85;;;;;;;;;;2072246;28;20427;-91
2023/09/03 04:18:43;;;;;;;11.07;6.40;;;;;;;;;;2071694;28;20038;-90
2023/09/03 04:19:47;;;;;;;10.20;6.60;;;;;;;;;;2063882;28;20038;-90
2023/09/03 04:20:50;;;;;;;9.00;6.70;;;;;;;;;;2063876;28;20199;-90
2023/09/03 04:21:51;;;;;;;8.52;6.30;;;;;;;;;;2063660;28;20046;-91
2023/09/03 04:22:53;;;;;;;9.77;7.03;;;;;;;;;;2063516;28;20514;-90
2023/09/03 04:23:54;;;;;;;9.23;6.88;;;;;;;;;;2063873;28;20065;-90
2023/09/03 04:24:54;;;;;;;7.35;5.88;;;;;;;;;;2063658;28;20038;-90
2023/09/03 04:25:56;;;;;;;10.27;6.57;;;;;;;;;;2071513;28;20397;-90
2023/09/03 04:26:57;;;;;;;8.05;6.18;;;;;;;;;;2079840;28;20132;-90
2023/09/03 04:27:57;;;;;;;8.32;6.05;;;;;;;;;;2072071;28;20038;-91
2023/09/03 04:28:57;;;;;;;7.32;5.65;;;;;;;;;;2063436;28;20050;-91
2023/09/03 04:29:58;;;;;;;8.23;5.68;;;;;;;;;;2071548;28;20046;-91
2023/09/03 04:31:00;;;;;;;8.95;6.10;;;;;;;;;;2080410;28;20033;-88
2023/09/03 04:32:00;;;;;;;7.63;6.00;;;;;;;;;;2081851;28;20053;-90
2023/09/03 04:33:01;;;;;;;9.07;6.38;;;;;;;;;;2074939;28;20057;-89
2023/09/03 04:34:02;;;;;;;8.23;5.90;;;;;;;;;;2075580;28;20046;-88
2023/09/03 04:35:03;;;;;;;7.43;5.65;;;;;;;;;;2082852;28;20494;-90
2023/09/03 04:36:04;;;;;;;7.63;5.85;;;;;;;;;;2082434;28;20046;-89
2023/09/03 04:37:04;;;;;;;8.45;5.50;;;;;;;;;;2073056;28;20037;-90
2023/09/03 04:38:05;;;;;;;7.53;6.25;;;;;;;;;;2077171;28;20054;-90
2023/09/03 04:39:08;;;;;;;7.78;5.47;;;;;;;;;;2081275;28;20026;-89
2023/09/03 04:40:09;;;;;;;6.93;5.10;;;;;;;;;;2064371;28;20452;-90
2023/09/03 04:41:09;;;;;;;9.05;5.45;;;;;;;;;;2064109;28;20046;-89
2023/09/03 04:42:09;;;;;;;7.63;5.28;;;;;;;;;;2064154;28;20115;-89
2023/09/03 04:43:10;;;;;;;7.10;5.25;;;;;;;;;;2072247;28;20586;-90
2023/09/03 04:44:12;;;;;;;6.80;5.38;;;;;;;;;;2064629;28;20525;-91
2023/09/03 04:45:13;;;;;;;10.05;5.07;;;;;;;;;;2072926;28;20483;-91
2023/09/03 04:46:13;;;;;;;10.38;4.63;;;;;;;;;;2072157;28;20046;-90
2023/09/03 04:47:13;;;;;;;7.63;4.85;;;;;;;;;;2065151;28;20121;-89
2023/09/03 04:48:15;;;;;;;7.15;4.60;;;;;;;;;;2064087;28;20026;-90
2023/09/03 04:49:15;;;;;;;6.30;4.97;;;;;;;;;;2065179;28;20078;-90
2023/09/03 04:50:16;;;;;;;7.28;4.78;;;;;;;;;;2081087;28;20044;-89
2023/09/03 04:51:16;;;;;;;5.13;4.60;;;;;;;;;;2081920;28;20067;-91
2023/09/03 04:52:16;;;;;;;6.53;4.47;;;;;;;;;;2073032;28;20113;-90
2023/09/03 04:53:17;;;;;;;6.28;4.80;;;;;;;;;;2072632;28;20333;-89
2023/09/03 04:54:17;;;;;;;4.95;4.28;;;;;;;;;;2079497;28;20044;-89
2023/09/03 04:55:18;;;;;;;8.20;4.65;;;;;;;;;;2071583;28;20033;-90
2023/09/03 04:56:18;;;;;;;7.47;4.28;;;;;;;;;;2063592;28;20049;-89
2023/09/03 04:57:18;;;;;;;8.70;4.85;;;;;;;;;;2071757;28;20084;-89
2023/09/03 04:58:19;;;;;;;7.88;5.20;;;;;;;;;;2079566;28;20045;-89
2023/09/03 04:59:19;;;;;;;6.70;4.15;;;;;;;;;;2063781;28;20428;-91
2023/09/03 05:00:20;;;;;;;6.38;4.43;;;;;;;;;;2055356;28;20045;-91
2023/09/03 05:01:20;;;;;;;6.35;4.63;;;;;;;;;;2071309;28;20068;-90
2023/09/03 05:02:21;;;;;;;6.22;4.38;;;;;;;;;;2071040;28;20129;-90
2023/09/03 05:03:21;;;;;;;6.82;4.28;;;;;;;;;;2063627;28;20189;-90
2023/09/03 05:04:21;;;;;;;6.55;4.05;;;;;;;;;;2072134;28;20045;-90
2023/09/03 05:05:22;;;;;;;6.65;4.63;;;;;;;;;;2063485;28;20041;-91
2023/09/03 05:06:22;;;;;;;5.95;3.95;;;;;;;;;;2063531;28;20084;-90
2023/09/03 05:07:23;;;;;;;5.82;3.95;;;;;;;;;;2072254;28;20034;-90
2023/09/03 05:08:23;;;;;;;5.72;4.30;;;;;;;;;;2072104;28;20419;-89
2023/09/03 05:09:24;;;;;;;7.70;4.35;;;;;;;;;;2072129;28;20042;-89
2023/09/03 05:10:25;;;;;;;6.45;3.78;;;;;;;;;;2072170;28;20053;-90
2023/09/03 05:11:25;;;;;;;6.13;3.78;;;;;;;;;;2072216;28;20217;-90
2023/09/03 05:12:28;;;;;;;6.03;4.20;;;;;;;;;;2072133;28;20069;-90
2023/09/03 05:13:28;;;;;;;7.93;4.68;;;;;;;;;;2072390;28;20373;-90
2023/09/03 05:14:29;;;;;;;8.23;5.07;;;;;;;;;;2063410;28;20090;-89
2023/09/03 05:15:29;;;;;;;5.05;4.32;;;;;;;;;;2063368;28;20101;-90
2023/09/03 05:16:30;;;;;;;5.05;3.90;;;;;;;;;;2079056;28;20102;-91
2023/09/03 05:17:30;;;;;;;6.22;4.10;;;;;;;;;;2071188;28;20675;-90
2023/09/03 05:18:32;;;;;;;6.22;4.55;;;;;;;;;;2063711;28;20050;-90
2023/09/03 05:19:33;;;;;;;4.63;3.88;;;;;;;;;;2071421;28;20116;-90
2023/09/03 05:20:39;;;;;;;6.95;3.80;;;;;;;;;;2079643;28;20107;-90
2023/09/03 05:21:39;;;;;;;5.45;4.03;;;;;;;;;;2087307;28;20047;-89
2023/09/03 05:22:40;;;;;;;5.22;3.80;;;;;;;;;;2079573;28;20041;-90
2023/09/03 05:23:41;;;;;;;6.50;4.63;;;;;;;;;;2072043;28;20041;-91
2023/09/03 05:24:41;;;;;;;5.90;4.47;;;;;;;;;;2080187;28;20077;-91
2023/09/03 05:25:42;;;;;;;6.45;4.38;;;;;;;;;;2085266;28;20064;-90
2023/09/03 05:26:43;;;;;;;5.25;3.97;;;;;;;;;;2086391;28;20041;-89
2023/09/03 05:27:43;;;;;;;7.85;4.57;;;;;;;;;;2071592;28;20159;-91
2023/09/03 05:28:44;;;;;;;5.25;4.18;;;;;;;;;;2063642;28;20496;-90
2023/09/03 05:29:44;;;;;;;7.60;4.50;;;;;;;;;;2071288;28;20050;-92
2023/09/03 05:30:48;;;;;;;6.18;4.55;;;;;;;;;;2071717;28;20125;-89
2023/09/03 05:31:48;;;;;;;11.23;4.88;;;;;;;;;;2079751;28;20041;-89
2023/09/03 05:32:49;;;;;;;5.85;4.13;;;;;;;;;;2079689;28;20042;-89
2023/09/03 05:33:50;;;;;;;5.78;4.32;;;;;;;;;;2079870;28;20045;-90
2023/09/03 05:34:51;;;;;;;9.48;4.78;;;;;;;;;;2071509;28;20527;-89
2023/09/03 05:35:51;;;;;;;6.25;4.85;;;;;;;;;;2063458;28;20105;-89
2023/09/03 05:36:51;;;;;;;6.60;4.72;;;;;;;;;;2072139;28;20076;-89
2023/09/03 05:37:52;;;;;;;5.85;4.40;;;;;;;;;;2071986;28;20491;-90
2023/09/03 05:38:52;;;;;;;6.95;4.45;;;;;;;;;;2072014;28;20046;-89
2023/09/03 05:39:53;;;;;;;6.88;4.60;;;;;;;;;;2079326;28;20572;-91
2023/09/03 05:40:53;;;;;;;5.70;4.45;;;;;;;;;;2071690;28;20042;-92
2023/09/03 05:41:54;;;;;;;4.65;4.25;;;;;;;;;;2063776;28;20073;-89
2023/09/03 05:42:54;;;;;;;5.05;4.10;;;;;;;;;;2063083;28;20096;-90
2023/09/03 05:43:55;;;;;;;4.40;4.00;;;;;;;;;;2063111;28;20042;-90
2023/09/03 05:44:56;;;;;;;4.93;3.92;;;;;;;;;;2063123;28;20070;-90
2023/09/03 05:45:56;;;;;;;4.03;3.63;;;;;;;;;;2063304;28;20424;-90
2023/09/03 05:46:57;;;;;;;5.50;3.63;;;;;;;;;;2071413;28;20046;-90
2023/09/03 05:47:58;;;;;;;4.15;3.50;;;;;;;;;;2071546;28;20042;-91
2023/09/03 05:48:58;;;;;;;6.03;4.20;;;;;;;;;;2063268;28;20574;-91
2023/09/03 05:49:59;;;;;;;4.57;4.03;;;;;;;;;;2079772;28;20049;-89
2023/09/03 05:51:03;;;;;;;4.80;3.75;;;;;;;;;;2079866;28;20116;-91
2023/09/03 05:52:04;;;;;;;4.35;3.95;;;;;;;;;;2072201;28;20530;-91
2023/09/03 05:53:05;;;;;;;5.97;4.10;;;;;;;;;;2072302;28;20042;-90
2023/09/03 05:54:05;;;;;;;6.10;4.05;;;;;;;;;;2063052;28;20046;-90
2023/09/03 05:55:06;;;;;;;4.53;3.80;;;;;;;;;;2071464;28;20072;-90
2023/09/03 05:56:08;;;;;;;4.78;3.30;;;;;;;;;;2079615;28;20072;-90
2023/09/03 05:57:08;;;;;;;5.40;3.55;;;;;;;;;;2079374;28;20152;-90
2023/09/03 05:58:09;;;;;;;4.30;3.70;;;;;;;;;;2071054;28;20033;-90
2023/09/03 05:59:10;;;;;;;4.22;3.50;;;;;;;;;;2063083;28;20050;-90
2023/09/03 06:00:11;;;;;;;4.57;3.70;;;;;;;;;;2063179;28;20098;-91
2023/09/03 06:01:12;;;;;;;5.00;3.63;;;;;;;;;;2071474;28;20057;-92
2023/09/03 06:02:12;;;;;;;3.97;3.58;;;;;;;;;;2071266;28;20050;-90
2023/09/03 06:03:13;;;;;;;5.20;3.65;;;;;;;;;;2063325;28;20491;-91
2023/09/03 06:04:14;;;;;;;4.30;3.60;;;;;;;;;;2055605;28;20046;-91
2023/09/03 06:05:15;;;;;;;3.92;3.10;;;;;;;;;;1712191;28;10239355;-90
2023/09/03 06:06:15;;;;;;;4.28;3.40;;;;;;;;;;2071919;28;20034;-90
2023/09/03 06:07:16;;;;;;;4.05;3.25;;;;;;;;;;2072212;28;20108;-90
2023/09/03 06:08:16;;;;;;;4.18;3.40;;;;;;;;;;2072809;28;20484;-90
2023/09/03 06:09:18;;;;;;;4.60;3.22;;;;;;;;;;2072478;28;20171;-90
2023/09/03 06:10:19;;;;;;;3.72;3.00;;;;;;;;;;2074555;28;20030;-90
2023/09/03 06:11:20;;;;;;;4.93;3.50;;;;;;;;;;2072551;28;20037;-90